Cupsaw Lake, New Jersey
Current Conditions -  °F | °C
As of 6:53 AM on Saturday 01 Nov 2014 (Local Time) from KCDW Reporting Station
Light Rain Light Rain  
Wind Chill: 41°   Ceiling: 4200
Heat Index: 45°   Visibility: 10mi
Dew Point: 36°   Wind: 8mph
Humidity: 71%   Direction: 40°NE
Pressure: 29.85"   Gusts: 18mph
Location:  41.1036°N, 74.2801°W
Report Text: KCDW 011053Z AUTO 04007G16KT 10SM -RA OVC042 07/02 A2985 RMK AO2 RAB02 SLP113 P0002 T00720022 TSNO
Loading
Personal Weather Stations






























Interactive Weather Map
Tropical Storm Tracking
New forecast layout! Learn more

10-Day Weather Forecast

Advertisements
Track Severe Weather on mobile